Time;durP1;ratioP1;P1;durP2;ratioP2;P2;SDS_P1;SDS_P2;PMS_P1;PMS_P2;Temp;Humidity;BMP_temperature;BMP_pressure;BME280_temperature;BME280_humidity;BME280_pressure;Samples;Min_cycle;Max_cycle;Signal;HPM_P1;HPM_P2
2022/03/04 00:00:21;;;;;;;16.97;5.73;;;;;;;3.16;57.96;100573.94;5034296;28;20057;-79
2022/03/04 00:02:47;;;;;;;13.88;5.88;;;;;;;3.03;58.19;100569.88;5034789;28;20272;-80
2022/03/04 00:05:12;;;;;;;15.63;6.40;;;;;;;2.92;58.45;100571.91;5034023;28;20029;-80
2022/03/04 00:07:37;;;;;;;10.07;4.80;;;;;;;3.03;58.38;100567.19;5036050;28;20307;-81
2022/03/04 00:10:03;;;;;;;16.45;6.25;;;;;;;3.01;58.43;100571.84;5035701;28;20034;-79
2022/03/04 00:12:29;;;;;;;14.38;5.93;;;;;;;2.88;58.89;100567.84;5035632;28;20033;-79
2022/03/04 00:14:54;;;;;;;20.00;6.37;;;;;;;2.84;58.65;100582.47;5038566;28;20423;-80
2022/03/04 00:17:19;;;;;;;12.67;5.17;;;;;;;2.77;59.11;100577.75;5040282;28;20252;-80
2022/03/04 00:19:45;;;;;;;12.85;5.60;;;;;;;2.76;58.85;100584.06;5040397;28;20044;-80
2022/03/04 00:22:10;;;;;;;14.90;6.03;;;;;;;2.59;60.33;100581.38;5044284;28;20029;-80
2022/03/04 00:24:36;;;;;;;13.77;5.80;;;;;;;2.54;60.08;100587.13;5042230;28;20252;-82
2022/03/04 00:27:10;;;;;;;13.93;5.80;;;;;;;2.58;59.89;100583.19;5041949;28;20291;-79
2022/03/04 00:29:35;;;;;;;13.95;5.28;;;;;;;2.49;60.25;100591.25;5038861;28;20029;-81
2022/03/04 00:32:01;;;;;;;15.07;6.05;;;;;;;2.59;60.02;100590.19;5040093;28;20071;-79
2022/03/04 00:34:26;;;;;;;17.25;6.63;;;;;;;2.49;60.32;100589.44;5039312;28;20038;-79
2022/03/04 00:36:52;;;;;;;16.53;5.90;;;;;;;2.35;61.31;100593.41;5038380;28;20065;-79
2022/03/04 00:39:17;;;;;;;14.70;6.03;;;;;;;2.22;60.98;100598.22;5040296;28;20022;-79
2022/03/04 00:41:44;;;;;;;12.93;4.73;;;;;;;2.33;61.19;100605.19;5040178;28;20076;-78
2022/03/04 00:44:12;;;;;;;12.23;4.35;;;;;;;2.38;60.57;100602.91;5039973;28;20037;-79
2022/03/04 00:46:37;;;;;;;13.27;5.20;;;;;;;2.45;60.10;100601.34;5039934;28;20029;-79
2022/03/04 00:49:06;;;;;;;16.67;5.47;;;;;;;2.42;59.82;100609.63;5039705;28;20060;-79
2022/03/04 00:51:32;;;;;;;14.23;5.68;;;;;;;2.41;59.39;100607.94;5038802;28;20116;-80
2022/03/04 00:53:58;;;;;;;13.30;4.93;;;;;;;2.39;59.72;100600.09;5039981;28;20041;-78
2022/03/04 00:56:23;;;;;;;17.65;5.20;;;;;;;2.25;60.05;100611.22;5039644;28;20030;-81
2022/03/04 00:58:49;;;;;;;14.63;6.07;;;;;;;2.29;60.10;100601.97;5039575;28;20037;-79
2022/03/04 01:01:16;;;;;;;14.40;5.43;;;;;;;2.33;60.02;100607.84;5039716;28;20284;-80
2022/03/04 01:03:41;;;;;;;11.38;4.15;;;;;;;2.29;59.74;100603.81;5038636;28;20264;-80
2022/03/04 01:06:07;;;;;;;14.23;5.53;;;;;;;2.38;59.15;100609.06;5038537;28;20408;-79
2022/03/04 01:08:33;;;;;;;17.30;5.55;;;;;;;2.26;59.98;100602.28;5038286;28;20306;-80
2022/03/04 01:10:59;;;;;;;14.15;5.75;;;;;;;2.17;60.42;100600.47;5037372;28;20036;-79
2022/03/04 01:13:24;;;;;;;19.17;5.55;;;;;;;2.11;60.43;100602.91;5037529;28;20536;-80
2022/03/04 01:15:50;;;;;;;12.65;4.90;;;;;;;2.23;59.62;100605.22;5037580;28;20120;-78
2022/03/04 01:18:16;;;;;;;14.23;5.80;;;;;;;2.08;59.95;100602.22;5037990;28;20112;-78
2022/03/04 01:20:42;;;;;;;14.23;5.22;;;;;;;2.05;60.60;100594.53;5036468;28;20040;-79
2022/03/04 01:23:07;;;;;;;16.67;5.80;;;;;;;1.96;60.68;100600.72;5036579;28;20033;-79
2022/03/04 01:25:33;;;;;;;11.77;5.40;;;;;;;2.06;60.69;100595.38;5038055;28;20096;-79
2022/03/04 01:27:59;;;;;;;12.05;4.80;;;;;;;2.11;60.20;100601.09;5036309;28;20033;-78
2022/03/04 01:30:25;;;;;;;16.05;6.22;;;;;;;2.07;60.14;100603.19;5034858;28;20065;-79
2022/03/04 01:32:51;;;;;;;13.68;5.50;;;;;;;1.88;60.86;100597.94;5036500;28;20040;-78
2022/03/04 01:35:16;;;;;;;13.07;4.95;;;;;;;1.76;61.15;100601.75;5037211;28;20040;-79
2022/03/04 01:37:42;;;;;;;15.00;4.75;;;;;;;1.91;60.19;100602.97;5036555;28;20052;-78
2022/03/04 01:40:09;;;;;;;11.75;4.88;;;;;;;1.87;60.88;100598.09;5036102;28;20388;-79
2022/03/04 01:42:36;;;;;;;14.15;5.65;;;;;;;1.90;60.68;100600.47;5036594;28;20424;-78
2022/03/04 01:45:06;;;;;;;15.18;5.95;;;;;;;1.85;60.53;100587.59;5035782;28;20048;-78
2022/03/04 01:47:32;;;;;;;21.02;6.43;;;;;;;1.76;61.06;100591.13;5036684;28;20151;-78
2022/03/04 01:49:57;;;;;;;17.67;5.72;;;;;;;1.73;60.94;100592.25;5035548;28;20029;-78
2022/03/04 01:52:23;;;;;;;10.32;4.80;;;;;;;1.72;61.02;100590.59;5035901;28;20029;-77
2022/03/04 01:54:48;;;;;;;10.87;4.70;;;;;;;1.71;60.89;100591.56;5036509;28;20119;-78
2022/03/04 01:57:13;;;;;;;14.10;4.80;;;;;;;1.61;61.46;100585.41;5036201;28;20076;-79
2022/03/04 01:59:39;;;;;;;14.67;5.70;;;;;;;1.61;61.64;100590.72;5036022;28;20033;-77
2022/03/04 02:02:04;;;;;;;15.00;5.33;;;;;;;1.52;61.84;100591.59;5036771;28;20263;-77
2022/03/04 02:04:30;;;;;;;12.10;5.13;;;;;;;1.61;61.71;100589.91;5036490;28;20163;-78
2022/03/04 02:06:55;;;;;;;13.38;5.57;;;;;;;1.75;61.45;100597.44;5035704;28;20059;-78
2022/03/04 02:09:21;;;;;;;17.23;6.13;;;;;;;1.59;61.95;100594.53;5035740;28;20056;-78
2022/03/04 02:11:48;;;;;;;12.43;5.50;;;;;;;1.58;61.85;100593.69;5036104;28;20714;-78
2022/03/04 02:14:15;;;;;;;14.15;5.38;;;;;;;1.67;61.51;100591.97;5037572;28;20025;-78
2022/03/04 02:16:48;;;;;;;15.27;6.03;;;;;;;1.64;61.40;100593.09;5037327;28;20029;-79
2022/03/04 02:19:14;;;;;;;16.20;5.28;;;;;;;1.70;61.74;100595.19;5036298;28;20048;-78
2022/03/04 02:22:00;;;;;;;;;;;;;;;1.51;62.24;100594.41;5037661;28;20037;-79
2022/03/04 02:24:27;;;;;;;17.98;6.38;;;;;;;1.41;62.62;100581.16;5037299;28;19955;-78
2022/03/04 02:26:54;;;;;;;14.65;5.13;;;;;;;1.48;62.52;100587.53;5037377;28;20036;-79
2022/03/04 02:29:21;;;;;;;15.63;6.13;;;;;;;1.44;62.72;100588.81;5037288;28;20028;-79
2022/03/04 02:31:46;;;;;;;12.68;5.38;;;;;;;1.43;63.13;100581.84;5037350;28;20132;-79
2022/03/04 02:34:12;;;;;;;15.00;5.25;;;;;;;1.37;63.45;100585.06;5034657;28;20488;-79
2022/03/04 02:36:38;;;;;;;14.25;5.93;;;;;;;1.23;63.46;100580.19;5034218;28;20121;-77
2022/03/04 02:39:06;;;;;;;12.38;5.13;;;;;;;1.33;63.52;100587.16;5035626;28;20034;-79
2022/03/04 02:41:34;;;;;;;14.85;6.22;;;;;;;1.11;64.52;100586.59;5035601;28;20091;-79
2022/03/04 02:44:00;;;;;;;19.80;6.82;;;;;;;0.91;65.54;100593.72;5035592;28;20555;-79
2022/03/04 02:46:25;;;;;;;16.70;5.78;;;;;;;0.90;65.35;100587.56;5035316;28;20396;-79
2022/03/04 02:48:51;;;;;;;15.27;5.60;;;;;;;1.01;65.70;100582.16;5034566;28;20026;-79
2022/03/04 02:51:16;;;;;;;14.70;6.50;;;;;;;0.92;65.45;100587.44;5036717;28;20279;-81
2022/03/04 02:53:41;;;;;;;13.97;5.27;;;;;;;0.96;65.75;100584.38;5037099;28;20029;-79
2022/03/04 02:56:07;;;;;;;13.97;5.43;;;;;;;0.89;65.42;100579.78;5038127;28;20256;-79
2022/03/04 02:58:32;;;;;;;13.60;5.27;;;;;;;0.85;65.48;100581.03;5037379;28;20383;-79
2022/03/04 03:00:57;;;;;;;14.37;5.90;;;;;;;0.82;66.01;100582.13;5035759;28;20116;-79
2022/03/04 03:03:23;;;;;;;14.13;5.63;;;;;;;0.86;65.81;100572.94;5034384;28;20061;-79
2022/03/04 03:05:49;;;;;;;12.38;5.45;;;;;;;0.76;66.69;100577.38;5037044;28;20040;-79
2022/03/04 03:08:14;;;;;;;13.50;6.43;;;;;;;0.78;66.38;100579.91;5038764;28;20384;-83
2022/03/04 03:10:39;;;;;;;15.30;5.50;;;;;;;0.92;65.67;100582.97;5038001;28;20041;-79
2022/03/04 03:13:05;;;;;;;17.37;6.27;;;;;;;0.82;66.26;100586.59;5038256;28;20022;-79
2022/03/04 03:15:30;;;;;;;14.32;5.18;;;;;;;0.68;66.70;100586.03;5037252;28;20257;-80
2022/03/04 03:17:56;;;;;;;12.03;5.17;;;;;;;0.80;66.94;100592.03;5038298;28;20080;-79
2022/03/04 03:20:22;;;;;;;11.30;5.17;;;;;;;0.68;66.85;100591.34;5036508;28;20256;-79
2022/03/04 03:22:47;;;;;;;18.50;6.80;;;;;;;0.51;67.54;100591.16;5036480;28;20344;-79
2022/03/04 03:25:12;;;;;;;18.07;6.13;;;;;;;0.78;67.22;100591.34;5042949;28;20528;-84
2022/03/04 03:27:39;;;;;;;15.00;5.38;;;;;;;0.58;68.24;100579.03;5042102;28;20286;-78
2022/03/04 03:30:06;;;;;;;14.93;6.25;;;;;;;0.56;67.77;100578.31;5041083;28;20037;-79
2022/03/04 03:32:32;;;;;;;17.27;5.70;;;;;;;0.50;67.69;100592.16;5036663;28;20085;-79
2022/03/04 03:34:57;;;;;;;16.45;5.82;;;;;;;0.50;68.22;100589.50;5037045;28;20033;-79
2022/03/04 03:37:23;;;;;;;14.75;6.03;;;;;;;0.40;68.36;100586.81;5036651;28;20029;-79
2022/03/04 03:39:48;;;;;;;13.00;5.50;;;;;;;0.37;68.50;100594.19;5035540;28;20175;-79
2022/03/04 03:42:14;;;;;;;14.55;4.90;;;;;;;0.45;68.19;100589.06;5034909;28;20037;-78
2022/03/04 03:44:39;;;;;;;22.92;6.55;;;;;;;0.42;68.01;100595.47;5034660;28;20032;-78
2022/03/04 03:47:05;;;;;;;13.85;5.78;;;;;;;0.43;68.18;100597.13;5033456;28;20037;-83
2022/03/04 03:49:31;;;;;;;12.07;5.65;;;;;;;0.46;67.94;100590.72;5033212;28;20653;-78
2022/03/04 03:51:56;;;;;;;14.75;6.13;;;;;;;0.50;68.22;100597.44;5034873;28;20033;-78
2022/03/04 03:54:22;;;;;;;13.85;5.22;;;;;;;0.44;68.28;100603.28;5032715;28;20053;-78
2022/03/04 03:56:48;;;;;;;11.95;5.72;;;;;;;0.39;68.56;100597.53;5033881;28;20034;-78
2022/03/04 03:59:13;;;;;;;14.82;6.05;;;;;;;0.40;68.16;100604.50;5033476;28;20032;-79
2022/03/04 04:01:39;;;;;;;19.42;7.18;;;;;;;0.29;68.57;100601.00;5033349;28;20080;-79
2022/03/04 04:04:08;;;;;;;13.87;5.70;;;;;;;0.43;68.38;100612.22;5034350;28;20032;-80
2022/03/04 04:06:33;;;;;;;21.17;7.10;;;;;;;0.34;68.72;100609.41;5034836;28;20388;-78
2022/03/04 04:09:00;;;;;;;14.63;7.30;;;;;;;0.29;68.64;100605.47;5035264;28;20041;-79
2022/03/04 04:11:26;;;;;;;16.58;5.85;;;;;;;0.40;68.35;100615.97;5034463;28;20026;-78
2022/03/04 04:13:51;;;;;;;14.65;6.07;;;;;;;0.43;67.81;100614.84;5034034;28;20487;-78
2022/03/04 04:16:17;;;;;;;16.33;6.33;;;;;;;0.33;68.57;100623.63;5035202;28;20385;-78
2022/03/04 04:18:42;;;;;;;16.42;6.05;;;;;;;0.40;68.14;100612.47;5034950;28;20033;-77
2022/03/04 04:21:08;;;;;;;15.85;6.63;;;;;;;0.22;69.08;100612.28;5035107;28;20044;-78
2022/03/04 04:23:34;;;;;;;12.27;5.28;;;;;;;0.15;69.29;100619.09;5035201;28;20384;-78
2022/03/04 04:25:59;;;;;;;14.38;6.13;;;;;;;0.26;68.79;100624.28;5033930;28;20481;-77
2022/03/04 04:28:25;;;;;;;17.30;6.10;;;;;;;0.23;68.89;100617.44;5035181;28;20043;-78
2022/03/04 04:30:51;;;;;;;14.15;5.80;;;;;;;0.23;69.26;100628.03;5034955;28;20085;-79
2022/03/04 04:33:17;;;;;;;14.63;5.93;;;;;;;0.27;69.11;100629.47;5033225;28;20108;-78
2022/03/04 04:35:42;;;;;;;14.65;6.28;;;;;;;0.08;69.84;100629.38;5033381;28;20060;-78
2022/03/04 04:38:08;;;;;;;16.33;5.85;;;;;;;0.06;69.70;100627.81;5033350;28;20036;-78
2022/03/04 04:40:33;;;;;;;15.32;6.10;;;;;;;0.06;69.98;100623.38;5034174;28;20095;-78
2022/03/04 04:42:59;;;;;;;15.43;5.73;;;;;;;0.13;69.69;100629.81;5033277;28;20045;-79
2022/03/04 04:45:24;;;;;;;21.73;6.22;;;;;;;0.04;70.23;100632.41;5035273;28;20433;-79
2022/03/04 04:47:49;;;;;;;20.23;6.10;;;;;;;0.10;70.14;100632.72;5034079;28;20372;-80
2022/03/04 04:50:15;;;;;;;15.60;6.00;;;;;;;0.00;70.02;100622.06;5034616;28;20373;-79
2022/03/04 04:52:40;;;;;;;19.70;7.27;;;;;;;-0.10;70.55;100630.97;5037353;28;20033;-80
2022/03/04 04:55:06;;;;;;;20.00;5.97;;;;;;;0.02;70.38;100629.88;5035685;28;20260;-80
2022/03/04 04:57:31;;;;;;;15.80;5.82;;;;;;;-0.05;70.37;100632.25;5036492;28;20037;-80
2022/03/04 04:59:56;;;;;;;20.85;6.53;;;;;;;-0.04;70.15;100628.63;5037472;28;20081;-79
2022/03/04 05:02:22;;;;;;;20.17;6.33;;;;;;;-0.24;70.97;100626.84;5040119;28;20040;-80
2022/03/04 05:04:48;;;;;;;17.83;5.97;;;;;;;-0.10;70.80;100623.00;5040366;28;20279;-78
2022/03/04 05:07:13;;;;;;;19.52;6.47;;;;;;;-0.30;71.69;100629.16;5044709;28;20036;-80
2022/03/04 05:09:39;;;;;;;16.90;6.63;;;;;;;-0.08;70.86;100629.00;5044970;28;20044;-78
2022/03/04 05:12:05;;;;;;;18.55;7.18;;;;;;;-0.14;71.17;100625.06;5042652;28;20040;-79
2022/03/04 05:14:30;;;;;;;18.33;8.30;;;;;;;-0.41;72.24;100632.72;5040826;28;20111;-80
2022/03/04 05:16:56;;;;;;;16.65;6.45;;;;;;;-0.37;72.25;100628.88;5037648;28;20032;-79
2022/03/04 05:19:21;;;;;;;17.37;6.63;;;;;;;-0.42;72.16;100628.41;5036837;28;20522;-78
2022/03/04 05:21:46;;;;;;;15.03;5.63;;;;;;;-0.42;72.37;100631.88;5037184;28;20650;-84
2022/03/04 05:24:12;;;;;;;17.17;6.50;;;;;;;-0.36;72.21;100631.34;5038907;28;20480;-78
2022/03/04 05:26:41;;;;;;;15.40;5.80;;;;;;;-0.37;72.06;100628.88;5039740;28;20045;-79
2022/03/04 05:29:09;;;;;;;19.30;6.75;;;;;;;-0.38;72.82;100629.84;5043843;28;20040;-79
2022/03/04 05:31:38;;;;;;;14.68;6.70;;;;;;;-0.33;72.50;100634.72;5043202;28;20059;-82
2022/03/04 05:34:03;;;;;;;15.75;5.18;;;;;;;-0.30;72.78;100632.66;5040911;28;20112;-78
2022/03/04 05:36:29;;;;;;;19.85;6.40;;;;;;;-0.51;73.38;100639.75;5042278;28;20072;-81
2022/03/04 05:38:55;;;;;;;16.58;6.28;;;;;;;-0.52;73.22;100641.56;5040115;28;20045;-77
2022/03/04 05:41:21;;;;;;;17.70;5.82;;;;;;;-0.53;73.04;100645.16;5035383;28;20036;-78
2022/03/04 05:43:48;;;;;;;21.45;5.90;;;;;;;-0.78;73.97;100653.47;5037315;28;20045;-78
2022/03/04 05:46:14;;;;;;;17.90;6.85;;;;;;;-0.77;74.02;100652.53;5036585;28;20029;-78
2022/03/04 05:48:40;;;;;;;15.90;5.60;;;;;;;-0.88;74.49;100644.59;5036601;28;20116;-77
2022/03/04 05:51:06;;;;;;;12.48;5.70;;;;;;;-0.72;74.02;100647.69;5035922;28;20036;-76
2022/03/04 05:53:32;;;;;;;13.60;5.40;;;;;;;-0.76;74.54;100648.91;5035388;28;20033;-78
2022/03/04 05:56:00;;;;;;;16.50;6.43;;;;;;;-0.65;73.85;100655.94;5035987;28;20151;-77
2022/03/04 05:58:25;;;;;;;16.45;6.43;;;;;;;-0.62;73.25;100664.47;5036314;28;20060;-78
2022/03/04 06:00:50;;;;;;;18.70;7.13;;;;;;;-0.59;73.26;100672.16;5035434;28;20488;-77
2022/03/04 06:03:16;;;;;;;13.68;5.18;;;;;;;-0.54;72.90;100677.94;5036352;28;20349;-78
2022/03/04 06:05:42;;;;;;;17.27;6.10;;;;;;;-0.56;72.97;100671.91;5037014;28;20357;-78
2022/03/04 06:08:07;;;;;;;13.18;5.97;;;;;;;-0.58;73.22;100671.19;5037003;28;20351;-78
2022/03/04 06:10:32;;;;;;;14.00;5.17;;;;;;;-0.52;73.13;100665.38;5036602;28;20448;-78
2022/03/04 06:12:58;;;;;;;15.43;5.90;;;;;;;-0.32;72.09;100670.81;5036286;28;20037;-78
2022/03/04 06:15:23;;;;;;;13.70;5.03;;;;;;;-0.45;72.28;100674.50;5037620;28;20056;-78
2022/03/04 06:17:50;;;;;;;20.10;5.78;;;;;;;-0.34;71.96;100665.66;5036149;28;20067;-78
2022/03/04 06:20:19;;;;;;;20.08;5.82;;;;;;;-0.42;72.20;100663.66;5036343;28;20037;-78
2022/03/04 06:22:45;;;;;;;16.13;6.22;;;;;;;-0.13;70.64;100674.44;5033863;28;20065;-77
2022/03/04 06:25:11;;;;;;;;;;;;;;;-0.37;71.48;100676.50;5036106;28;20029;-77
2022/03/04 06:27:52;;;;;;;16.67;5.90;;;;;;;-0.19;70.71;100674.13;5035266;28;20008;-78
2022/03/04 06:30:17;;;;;;;16.48;6.47;;;;;;;-0.33;71.67;100682.38;5035186;28;20036;-78
2022/03/04 06:32:43;;;;;;;17.38;6.10;;;;;;;-0.19;71.12;100688.22;5034767;28;20029;-76
2022/03/04 06:35:08;;;;;;;16.40;5.23;;;;;;;-0.25;71.33;100687.88;5034608;28;20468;-78
2022/03/04 06:37:34;;;;;;;17.85;5.80;;;;;;;-0.30;72.03;100695.34;5034765;28;20403;-78
2022/03/04 06:39:59;;;;;;;15.30;5.47;;;;;;;-0.28;71.16;100698.72;5035494;28;20041;-78
2022/03/04 06:42:24;;;;;;;17.40;5.53;;;;;;;-0.28;71.29;100704.00;5036117;28;20021;-78
2022/03/04 06:44:50;;;;;;;16.48;5.20;;;;;;;-0.17;71.36;100709.25;5037666;28;20261;-79
2022/03/04 06:47:15;;;;;;;14.90;5.57;;;;;;;-0.02;71.30;100707.97;5038208;28;20047;-78
2022/03/04 06:49:41;;;;;;;19.17;6.35;;;;;;;-0.07;71.37;100716.28;5035603;28;20456;-78
2022/03/04 06:52:06;;;;;;;14.30;5.90;;;;;;;0.03;71.30;100715.50;5034802;28;20040;-79
2022/03/04 06:54:33;;;;;;;17.23;5.82;;;;;;;0.18;70.45;100711.56;5034078;28;20318;-82
2022/03/04 06:56:59;;;;;;;14.75;5.72;;;;;;;0.31;69.58;100710.38;5035296;28;20069;-78
2022/03/04 06:59:24;;;;;;;15.80;5.47;;;;;;;0.35;69.42;100713.63;5034953;28;20037;-78
2022/03/04 07:01:50;;;;;;;16.53;5.77;;;;;;;0.24;69.60;100708.38;5035354;28;20077;-78
2022/03/04 07:04:17;;;;;;;18.07;5.67;;;;;;;0.27;69.84;100713.41;5034907;28;20030;-78
2022/03/04 07:06:42;;;;;;;17.27;6.35;;;;;;;0.18;69.95;100716.88;5033425;28;20268;-77
2022/03/04 07:09:08;;;;;;;14.05;6.07;;;;;;;0.17;70.51;100720.50;5034282;28;20104;-78
2022/03/04 07:11:33;;;;;;;15.85;5.93;;;;;;;0.22;70.06;100726.22;5034641;28;20340;-78
2022/03/04 07:13:59;;;;;;;17.30;6.90;;;;;;;0.35;69.96;100726.88;5034533;28;20486;-79
2022/03/04 07:16:24;;;;;;;18.33;5.87;;;;;;;0.27;70.23;100732.81;5034833;28;20071;-84
2022/03/04 07:18:50;;;;;;;15.93;6.53;;;;;;;0.36;70.06;100727.72;5035823;28;20120;-79
2022/03/04 07:21:15;;;;;;;13.73;5.50;;;;;;;0.38;70.28;100728.38;5035530;28;20052;-79
2022/03/04 07:23:41;;;;;;;18.50;7.10;;;;;;;0.38;70.43;100728.38;5033765;28;20029;-78
2022/03/04 07:26:09;;;;;;;15.53;6.63;;;;;;;0.44;69.93;100739.31;5035414;28;20029;-79
2022/03/04 07:28:34;;;;;;;17.77;6.63;;;;;;;0.45;70.63;100734.84;5034895;28;20101;-79
2022/03/04 07:31:00;;;;;;;17.38;6.32;;;;;;;0.52;70.46;100738.66;5035604;28;20357;-79
2022/03/04 07:33:25;;;;;;;16.53;6.70;;;;;;;0.46;70.88;100741.84;5035241;28;20119;-79
2022/03/04 07:35:51;;;;;;;17.40;6.63;;;;;;;0.59;70.35;100750.41;5034540;28;20264;-80
2022/03/04 07:38:16;;;;;;;17.13;7.13;;;;;;;0.82;69.47;100745.75;5034605;28;20478;-76
2022/03/04 07:40:41;;;;;;;19.47;6.73;;;;;;;0.63;69.26;100750.00;5033284;28;20040;-76
2022/03/04 07:43:07;;;;;;;15.38;5.97;;;;;;;0.74;69.28;100749.06;5034075;28;20030;-79
2022/03/04 07:45:33;;;;;;;16.73;6.20;;;;;;;0.85;69.00;100746.34;5035106;28;20538;-78
2022/03/04 07:47:59;;;;;;;20.55;7.63;;;;;;;0.90;68.68;100749.41;5034389;28;20083;-79
2022/03/04 07:50:24;;;;;;;18.58;5.93;;;;;;;0.95;69.04;100743.69;5034099;28;20025;-80
2022/03/04 07:52:50;;;;;;;19.77;7.57;;;;;;;1.10;67.76;100736.19;5035418;28;20061;-79
2022/03/04 07:55:17;;;;;;;18.93;7.00;;;;;;;0.95;68.28;100746.34;5034147;28;20021;-79
2022/03/04 07:57:43;;;;;;;19.67;7.65;;;;;;;1.12;67.67;100744.84;5034179;28;20084;-83
2022/03/04 08:00:12;;;;;;;15.07;6.25;;;;;;;1.00;67.86;100741.47;5035649;28;20057;-79
2022/03/04 08:02:39;;;;;;;16.23;6.30;;;;;;;1.14;67.86;100748.22;5039048;28;20029;-81
2022/03/04 08:05:08;;;;;;;13.85;6.47;;;;;;;1.25;67.38;100753.44;5041362;28;20481;-80
2022/03/04 08:07:36;;;;;;;16.05;7.20;;;;;;;1.28;67.25;100748.66;5038946;28;20041;-79
2022/03/04 08:10:07;;;;;;;20.10;7.53;;;;;;;1.24;67.12;100751.75;5034746;28;20025;-78
2022/03/04 08:12:32;;;;;;;17.30;6.70;;;;;;;1.33;67.04;100754.41;5031261;28;20030;-77
2022/03/04 08:14:58;;;;;;;17.25;7.22;;;;;;;1.48;66.54;100748.69;5032670;28;20048;-77
2022/03/04 08:17:23;;;;;;;13.93;6.73;;;;;;;1.39;66.73;100745.06;5032927;28;20056;-79
2022/03/04 08:19:48;;;;;;;14.37;6.40;;;;;;;1.44;66.39;100744.63;5032789;28;20060;-79
2022/03/04 08:22:14;;;;;;;13.73;5.47;;;;;;;1.80;65.47;100743.09;5032238;28;20256;-77
2022/03/04 08:24:39;;;;;;;18.93;6.67;;;;;;;1.76;65.41;100744.38;5033086;28;20271;-76
2022/03/04 08:27:05;;;;;;;19.90;6.63;;;;;;;1.96;65.00;100751.38;5032758;28;20033;-76
2022/03/04 08:29:31;;;;;;;16.75;6.10;;;;;;;2.15;63.33;100747.84;5032092;28;20563;-76
2022/03/04 08:31:56;;;;;;;20.70;7.30;;;;;;;2.21;63.45;100753.41;5032271;28;20515;-77
2022/03/04 08:34:21;;;;;;;17.07;7.07;;;;;;;2.08;63.31;100763.50;5032813;28;20065;-76
2022/03/04 08:36:49;;;;;;;20.13;8.03;;;;;;;2.23;62.88;100761.25;5036244;28;20539;-76
2022/03/04 08:39:15;;;;;;;23.77;7.57;;;;;;;2.37;61.87;100764.28;5036535;28;20735;-76
2022/03/04 08:41:41;;;;;;;20.90;6.15;;;;;;;2.52;61.57;100766.47;5036257;28;20451;-76
2022/03/04 08:44:07;;;;;;;16.15;6.68;;;;;;;2.55;61.39;100760.88;5035773;28;20034;-77
2022/03/04 08:46:32;;;;;;;15.43;6.07;;;;;;;2.69;61.34;100768.38;5035074;28;20032;-75
2022/03/04 08:48:57;;;;;;;15.90;5.87;;;;;;;2.79;60.69;100766.53;5034713;28;20918;-76
2022/03/04 08:51:25;;;;;;;17.42;6.38;;;;;;;3.05;60.59;100758.69;5034912;28;20030;-76
2022/03/04 08:53:54;;;;;;;13.35;5.32;;;;;;;3.02;60.09;100757.19;5035979;28;20125;-76
2022/03/04 08:56:19;;;;;;;17.10;5.57;;;;;;;3.07;59.33;100754.06;5034617;28;20041;-75
2022/03/04 08:58:45;;;;;;;14.48;6.38;;;;;;;3.16;58.41;100755.84;5036041;28;20087;-76
2022/03/04 09:01:10;;;;;;;11.25;5.43;;;;;;;3.31;57.90;100758.84;5036565;28;20512;-76
2022/03/04 09:03:35;;;;;;;13.10;5.57;;;;;;;3.40;57.00;100760.63;5035583;28;20219;-77
2022/03/04 09:06:01;;;;;;;14.10;5.13;;;;;;;3.49;56.90;100757.88;5035774;28;20025;-77
2022/03/04 09:08:26;;;;;;;14.57;6.17;;;;;;;3.89;56.42;100755.75;5036072;28;20033;-76
2022/03/04 09:10:52;;;;;;;15.48;5.65;;;;;;;3.82;55.32;100756.34;5035548;28;20342;-76
2022/03/04 09:13:17;;;;;;;14.93;5.13;;;;;;;3.81;54.82;100757.34;5036009;28;20080;-76
2022/03/04 09:15:43;;;;;;;12.03;4.83;;;;;;;4.04;53.90;100763.03;5035488;28;20067;-76
2022/03/04 09:18:08;;;;;;;14.63;5.88;;;;;;;4.05;54.78;100758.53;5034063;28;20036;-76
2022/03/04 09:20:34;;;;;;;13.13;6.00;;;;;;;4.22;53.75;100762.16;5035348;28;20116;-76
2022/03/04 09:22:59;;;;;;;15.32;6.00;;;;;;;4.31;53.87;100747.88;5034241;28;20276;-76
2022/03/04 09:25:26;;;;;;;17.13;5.63;;;;;;;4.50;53.20;100753.00;5035860;28;20112;-79
2022/03/04 09:27:52;;;;;;;17.98;6.45;;;;;;;4.63;53.33;100744.59;5035135;28;20267;-77
2022/03/04 09:30:18;;;;;;;14.93;4.57;;;;;;;4.70;51.92;100749.13;5035706;28;20029;-81
2022/03/04 09:32:43;;;;;;;13.93;5.45;;;;;;;4.43;51.64;100746.66;5035536;28;20476;-77
2022/03/04 09:35:09;;;;;;;12.55;5.20;;;;;;;4.58;52.03;100744.22;5035423;28;20184;-76
2022/03/04 09:37:35;;;;;;;16.07;5.57;;;;;;;4.83;51.19;100746.88;5035587;28;20034;-76
2022/03/04 09:40:02;;;;;;;12.70;4.80;;;;;;;5.03;50.38;100751.94;5035430;28;20025;-75
2022/03/04 09:42:27;;;;;;;16.35;5.68;;;;;;;5.04;50.56;100751.78;5035306;28;20029;-76
2022/03/04 09:44:53;;;;;;;18.23;5.47;;;;;;;5.06;50.37;100748.94;5035329;28;20547;-76
2022/03/04 09:47:22;;;;;;;17.50;6.33;;;;;;;5.22;50.11;100746.34;5034975;28;20516;-77
2022/03/04 09:49:50;;;;;;;14.00;5.25;;;;;;;5.25;50.26;100746.00;5035313;28;20033;-77
2022/03/04 09:52:16;;;;;;;18.58;6.38;;;;;;;5.43;49.03;100738.72;5035492;28;20061;-75
2022/03/04 09:54:46;;;;;;;15.25;5.68;;;;;;;5.60;49.03;100744.91;5035015;28;20072;-76
2022/03/04 09:57:11;;;;;;;14.27;5.60;;;;;;;5.82;48.42;100752.31;5034893;28;20041;-76
2022/03/04 09:59:37;;;;;;;15.97;6.27;;;;;;;5.77;48.39;100751.97;5034978;28;20036;-76
2022/03/04 10:02:02;;;;;;;11.83;5.63;;;;;;;5.76;49.45;100742.25;5035114;28;20033;-75
2022/03/04 10:04:28;;;;;;;13.15;4.78;;;;;;;5.94;47.99;100744.81;5035275;28;20048;-76
2022/03/04 10:06:54;;;;;;;13.85;5.28;;;;;;;5.96;48.13;100744.66;5033532;28;20036;-76
2022/03/04 10:09:43;;;;;;;12.18;4.95;;;;;;;6.00;48.32;100751.34;5034584;28;20029;-79
2022/03/04 10:12:10;;;;;;;14.32;5.57;;;;;;;6.28;46.01;100749.97;5034063;28;20044;-76
2022/03/04 10:15:06;;;;;;;21.55;8.63;;;;;;;6.26;47.13;100741.31;5034743;28;20573;-76
2022/03/04 10:17:36;;;;;;;18.17;7.28;;;;;;;6.32;48.12;100735.25;5032677;28;20040;-76
2022/03/04 10:20:09;;;;;;;24.20;8.02;;;;;;;6.57;46.35;100736.91;5034581;28;20530;-75
2022/03/04 10:22:42;;;;;;;18.63;6.93;;;;;;;6.72;46.79;100738.84;5034693;28;20032;-76
2022/03/04 10:25:26;;;;;;;18.90;6.80;;;;;;;6.80;45.54;100733.47;5034853;28;20043;-76
2022/03/04 10:27:52;;;;;;;17.70;5.93;;;;;;;6.93;45.26;100731.91;5034348;28;20440;-75
2022/03/04 10:30:30;;;;;;;12.77;5.53;;;;;;;6.99;44.50;100734.91;5033976;28;20425;-75
2022/03/04 10:33:15;;;;;;;13.50;5.50;;;;;;;6.95;44.89;100732.59;5034135;28;20032;-76
2022/03/04 10:35:41;;;;;;;13.82;5.30;;;;;;;7.07;44.69;100724.16;5033028;28;20030;-76
2022/03/04 10:38:17;;;;;;;;;;;;;;;7.10;44.68;100724.63;5034565;28;20388;-76
2022/03/04 10:40:45;;;;;;;11.05;5.25;;;;;;;7.23;44.78;100724.06;5034476;28;19964;-76
2022/03/04 10:43:21;;;;;;;20.23;6.13;;;;;;;7.45;43.63;100725.13;5033043;28;20033;-76
2022/03/04 10:45:47;;;;;;;16.52;5.32;;;;;;;7.70;42.87;100720.44;5033641;28;20376;-77
2022/03/04 10:48:21;;;;;;;13.38;5.57;;;;;;;7.58;42.74;100720.00;5032801;28;20034;-77
2022/03/04 10:50:52;;;;;;;16.50;6.63;;;;;;;7.70;42.69;100721.25;5029789;28;20133;-77
2022/03/04 10:53:21;;;;;;;14.32;6.53;;;;;;;7.56;42.86;100730.06;5034191;28;20087;-78
2022/03/04 10:56:14;;;;;;;14.95;5.35;;;;;;;7.57;42.77;100721.84;5034149;28;20041;-75
2022/03/04 10:58:41;;;;;;;15.90;5.72;;;;;;;7.77;41.55;100726.72;5032846;28;20595;-77
2022/03/04 11:01:10;;;;;;;13.30;5.75;;;;;;;7.81;41.53;100725.38;5033805;28;20054;-77
2022/03/04 11:03:37;;;;;;;14.77;5.40;;;;;;;7.93;41.37;100723.91;5032876;28;20048;-77
2022/03/04 11:06:07;;;;;;;14.25;5.88;;;;;;;7.88;42.21;100723.66;5033156;28;20064;-79
2022/03/04 11:08:33;;;;;;;13.38;5.68;;;;;;;7.62;41.34;100724.00;5032113;28;20376;-77
2022/03/04 11:11:01;;;;;;;14.25;6.30;;;;;;;7.68;41.75;100725.13;5032548;28;20033;-77
2022/03/04 11:13:29;;;;;;;16.58;6.10;;;;;;;8.01;41.79;100729.22;5031799;28;20091;-78
2022/03/04 11:15:55;;;;;;;16.08;5.57;;;;;;;8.26;40.70;100725.28;5032514;28;20029;-78
2022/03/04 11:18:22;;;;;;;15.38;5.80;;;;;;;8.31;40.12;100727.44;5033232;28;20121;-78
2022/03/04 11:20:50;;;;;;;12.38;5.25;;;;;;;8.45;40.15;100721.28;5033057;28;20136;-76